createdAt,value
2022-10-01T00:04:13.454Z,10.12
2022-10-01T00:09:14.662Z,9.82
2022-10-01T00:14:15.767Z,9.83
2022-10-01T00:19:16.860Z,9.89
2022-10-01T00:24:18.179Z,9.73
2022-10-01T00:29:20.267Z,9.66
2022-10-01T00:34:19.519Z,9.58
2022-10-01T00:39:20.674Z,9.86
2022-10-01T00:44:21.923Z,10.04
2022-10-01T00:49:23.151Z,10.07
2022-10-01T00:54:24.374Z,10.12
2022-10-01T00:59:25.642Z,10.14
2022-10-01T01:04:26.912Z,10.01
2022-10-01T01:09:28.409Z,10.00
2022-10-01T01:14:27.555Z,9.73
2022-10-01T01:19:28.743Z,9.52
2022-10-01T01:24:29.985Z,9.25
2022-10-01T01:29:31.262Z,9.06
2022-10-01T01:34:32.467Z,9.09
2022-10-01T01:39:35.624Z,9.27
2022-10-01T01:44:35.731Z,9.42
2022-10-01T01:49:34.878Z,9.57
2022-10-01T01:54:36.130Z,9.57
2022-10-01T01:59:37.331Z,9.61
2022-10-01T02:04:38.454Z,9.67
2022-10-01T02:09:39.713Z,9.76
2022-10-01T02:14:40.838Z,9.56
2022-10-01T02:19:42.037Z,9.45
2022-10-01T02:24:43.300Z,9.30
2022-10-01T02:29:44.532Z,9.45
2022-10-01T02:34:46.234Z,9.57
2022-10-01T02:39:45.331Z,9.53
2022-10-01T02:44:46.576Z,9.31
2022-10-01T02:49:48.092Z,9.06
2022-10-01T02:54:48.199Z,8.94
2022-10-01T02:59:47.397Z,8.76
2022-10-01T03:04:48.620Z,8.75
2022-10-01T03:09:49.860Z,9.05
2022-10-01T03:14:51.067Z,9.34
2022-10-01T03:19:52.240Z,9.43
2022-10-01T03:24:53.387Z,9.58
2022-10-01T03:29:54.495Z,9.68
2022-10-01T03:34:55.660Z,9.60
2022-10-01T03:39:56.940Z,9.63
2022-10-01T03:44:58.237Z,9.61
2022-10-01T03:49:59.432Z,9.61
2022-10-01T03:55:01.519Z,9.61
2022-10-01T04:00:00.716Z,9.71
2022-10-01T04:05:02.017Z,9.76
2022-10-01T04:10:03.243Z,9.66
2022-10-01T04:15:04.378Z,9.57
2022-10-01T04:20:05.573Z,9.60
2022-10-01T04:25:06.772Z,9.70
2022-10-01T04:30:07.877Z,9.67
2022-10-01T04:35:09.085Z,9.57
2022-10-01T04:40:10.583Z,9.42
2022-10-01T04:45:09.673Z,9.43
2022-10-01T04:50:10.796Z,9.45
2022-10-01T04:55:12.908Z,9.40
2022-10-01T05:00:12.494Z,9.42
2022-10-01T05:05:11.697Z,9.52
2022-10-01T05:10:13.807Z,9.61
2022-10-01T05:15:13.039Z,9.60
2022-10-01T05:20:14.136Z,9.57
2022-10-01T05:25:15.561Z,9.53
2022-10-01T05:30:16.832Z,9.53
2022-10-01T05:35:18.081Z,9.46
2022-10-01T05:40:19.321Z,9.67
2022-10-01T05:45:21.411Z,9.89
2022-10-01T05:50:21.543Z,10.21
2022-10-01T05:55:20.797Z,10.15
2022-10-01T06:00:21.893Z,10.12
2022-10-01T06:05:23.046Z,10.15
2022-10-01T06:10:24.257Z,10.22
2022-10-01T06:15:25.507Z,10.26
2022-10-01T06:20:27.636Z,10.30
2022-10-01T06:25:26.758Z,10.44
2022-10-01T06:30:28.033Z,10.44
2022-10-01T06:35:30.157Z,10.47
2022-10-01T06:40:29.236Z,10.39
2022-10-01T06:45:31.395Z,10.42
2022-10-01T06:50:30.555Z,10.65
2022-10-01T06:55:31.795Z,10.73
2022-10-01T07:00:33.026Z,10.66
2022-10-01T07:05:34.236Z,10.68
2022-10-01T07:10:35.450Z,10.60
2022-10-01T07:15:36.636Z,10.59
2022-10-01T07:20:37.826Z,10.71
2022-10-01T07:25:38.955Z,10.71
2022-10-01T07:30:40.181Z,10.81
2022-10-01T07:35:41.529Z,10.96
2022-10-01T07:40:43.632Z,11.03
2022-10-01T07:45:42.845Z,11.72
2022-10-01T07:50:44.985Z,11.75
2022-10-01T07:55:44.074Z,11.82
2022-10-01T08:00:45.171Z,11.80
2022-10-01T08:05:46.261Z,11.75
2022-10-01T08:10:47.368Z,11.72
2022-10-01T08:15:48.553Z,11.80
2022-10-01T08:20:49.716Z,11.99
2022-10-01T08:25:50.874Z,12.15
2022-10-01T08:30:51.954Z,12.16
2022-10-01T08:35:53.153Z,12.20
2022-10-01T08:40:56.250Z,12.34
2022-10-01T08:45:55.687Z,12.26
2022-10-01T08:50:56.843Z,12.20
2022-10-01T08:55:57.988Z,12.29
2022-10-01T09:00:59.289Z,12.26
2022-10-01T09:06:01.462Z,12.44
2022-10-01T09:11:00.695Z,12.82
2022-10-01T09:16:01.814Z,12.93
2022-10-01T09:21:03.012Z,12.67
2022-10-01T09:26:04.213Z,12.51
2022-10-01T09:31:06.473Z,12.41
2022-10-01T09:36:05.726Z,12.31
2022-10-01T09:41:06.842Z,12.05
2022-10-01T09:46:08.026Z,11.53
2022-10-01T09:51:09.247Z,11.41
2022-10-01T09:56:10.342Z,11.49
2022-10-01T10:01:12.446Z,11.49
2022-10-01T10:06:12.552Z,11.44
2022-10-01T10:11:11.660Z,11.38
2022-10-01T10:16:13.765Z,11.56
2022-10-01T10:21:13.878Z,11.41
2022-10-01T10:26:12.942Z,11.67
2022-10-01T10:31:14.260Z,11.70
2022-10-01T10:36:15.343Z,11.89
2022-10-01T10:41:17.046Z,11.94
2022-10-01T10:46:17.185Z,11.99
2022-10-01T10:51:16.262Z,12.21
2022-10-01T10:56:18.385Z,12.51
2022-10-01T11:01:18.519Z,12.87
2022-10-01T11:06:17.623Z,12.85
2022-10-01T11:11:18.727Z,12.93
2022-10-01T11:16:19.935Z,13.20
2022-10-01T11:21:21.056Z,13.49
2022-10-01T11:26:22.311Z,13.40
2022-10-01T11:31:23.423Z,13.22
2022-10-01T11:36:24.581Z,13.54
2022-10-01T11:41:29.551Z,13.92
2022-10-01T11:46:26.726Z,13.87
2022-10-01T11:51:29.040Z,13.58
2022-10-01T11:56:28.231Z,13.61
2022-10-01T12:01:28.620Z,13.54
2022-10-01T12:06:33.966Z,13.14
2022-10-01T12:11:29.382Z,12.99
2022-10-01T12:16:30.646Z,12.59
2022-10-01T12:21:31.883Z,12.66
2022-10-01T12:26:36.446Z,12.51
2022-10-01T12:31:33.958Z,12.57
2022-10-01T12:36:35.418Z,12.66
2022-10-01T12:41:34.927Z,12.45
2022-10-01T12:46:36.406Z,12.12
2022-10-01T12:51:36.803Z,11.78
2022-10-01T12:56:37.359Z,11.72
2022-10-01T13:01:36.924Z,12.04
2022-10-01T13:06:38.443Z,12.23
2022-10-01T13:11:37.713Z,12.21
2022-10-01T13:16:40.015Z,12.39
2022-10-01T13:21:41.246Z,12.46
2022-10-01T13:26:40.548Z,12.57
2022-10-01T13:31:42.880Z,12.48
2022-10-01T13:36:42.112Z,12.19
2022-10-01T13:41:43.369Z,12.30
2022-10-01T13:46:44.636Z,12.37
2022-10-01T13:51:45.926Z,12.20
2022-10-01T13:56:47.151Z,12.16
2022-10-01T14:01:48.373Z,12.31
2022-10-01T14:06:50.628Z,12.12
2022-10-01T14:11:49.857Z,12.39
2022-10-01T14:16:52.058Z,12.39
2022-10-01T14:21:51.317Z,12.19
2022-10-01T14:26:52.857Z,12.15
2022-10-01T14:31:52.039Z,12.23
2022-10-01T14:36:53.213Z,12.39
2022-10-01T14:41:54.462Z,12.41
2022-10-01T14:46:55.638Z,12.48
2022-10-01T14:51:56.863Z,12.44
2022-10-01T14:56:58.981Z,12.48
2022-10-01T15:01:58.224Z,12.34
2022-10-01T15:06:59.421Z,12.39
2022-10-01T15:12:00.964Z,12.12
2022-10-01T15:17:00.165Z,12.19
2022-10-01T15:22:02.262Z,12.02
2022-10-01T15:27:00.405Z,12.02
2022-10-01T15:32:01.669Z,12.04
2022-10-01T15:37:02.867Z,11.97
2022-10-01T15:42:04.085Z,12.08
2022-10-01T15:47:05.264Z,12.11
2022-10-01T15:52:06.411Z,12.04
2022-10-01T15:57:07.627Z,12.19
2022-10-01T16:02:08.955Z,12.24
2022-10-01T16:07:10.061Z,12.06
2022-10-01T16:12:11.142Z,12.01
2022-10-01T16:17:12.226Z,12.11
2022-10-01T16:22:13.313Z,11.99
2022-10-01T16:27:14.396Z,12.06
2022-10-01T16:32:15.682Z,12.19
2022-10-01T16:37:16.775Z,12.29
2022-10-01T16:42:23.964Z,12.56
2022-10-01T16:47:18.006Z,12.70
2022-10-01T16:52:20.106Z,12.88
2022-10-01T16:57:20.254Z,12.77
2022-10-01T17:02:19.534Z,12.54
2022-10-01T17:07:20.752Z,12.46
2022-10-01T17:12:21.948Z,12.42
2022-10-01T17:17:23.266Z,12.42
2022-10-01T17:22:24.508Z,12.30
2022-10-01T17:27:26.658Z,12.45
2022-10-01T17:32:25.786Z,12.42
2022-10-01T17:37:26.979Z,12.29
2022-10-01T17:42:28.183Z,12.15
2022-10-01T17:47:29.388Z,12.11
2022-10-01T17:52:30.518Z,12.15
2022-10-01T17:57:32.813Z,12.16
2022-10-01T18:02:48.022Z,12.23
2022-10-01T18:07:33.054Z,12.27
2022-10-01T18:12:34.280Z,12.27
2022-10-01T18:17:36.815Z,12.34
2022-10-01T18:22:35.961Z,12.30
2022-10-01T18:27:38.114Z,12.31
2022-10-01T18:32:38.198Z,12.37
2022-10-01T18:37:39.993Z,12.33
2022-10-01T18:42:38.567Z,12.33
2022-10-01T18:47:38.683Z,12.33
2022-10-01T18:52:38.845Z,12.21
2022-10-01T18:57:37.969Z,12.16
2022-10-01T19:02:39.090Z,12.06
2022-10-01T19:07:40.215Z,12.05
2022-10-01T19:12:43.326Z,12.01
2022-10-01T19:17:43.418Z,12.01
2022-10-01T19:22:42.507Z,12.06
2022-10-01T19:27:44.630Z,12.04
2022-10-01T19:32:43.695Z,12.05
2022-10-01T19:37:44.971Z,12.06
2022-10-01T19:42:46.238Z,12.16
2022-10-01T19:47:47.342Z,12.11
2022-10-01T19:52:48.444Z,12.11
2022-10-01T19:57:49.566Z,12.24
2022-10-01T20:02:50.677Z,12.23
2022-10-01T20:07:52.796Z,12.16
2022-10-01T20:12:52.895Z,12.19
2022-10-01T20:17:51.992Z,12.16
2022-10-01T20:22:53.311Z,12.21
2022-10-01T20:27:55.443Z,12.24
2022-10-01T20:32:54.515Z,12.34
2022-10-01T20:37:55.828Z,12.41
2022-10-01T20:42:56.943Z,12.42
2022-10-01T20:47:59.064Z,12.56
2022-10-01T20:52:58.266Z,12.57
2022-10-01T20:57:59.537Z,12.74
2022-10-01T21:03:00.834Z,12.81
2022-10-01T21:08:01.930Z,12.89
2022-10-01T21:13:03.245Z,13.06
2022-10-01T21:18:04.621Z,13.14
2022-10-01T21:23:05.703Z,13.22
2022-10-01T21:28:07.870Z,13.30
2022-10-01T21:33:07.273Z,13.32
2022-10-01T21:38:08.379Z,13.44
2022-10-01T21:43:09.486Z,13.36
2022-10-01T21:48:10.572Z,13.44
2022-10-01T21:53:11.670Z,13.52
2022-10-01T21:58:15.770Z,13.56
2022-10-01T22:03:12.849Z,13.25
2022-10-01T22:08:13.953Z,13.03
2022-10-01T22:13:15.061Z,12.88
2022-10-01T22:18:17.146Z,12.71
2022-10-01T22:23:16.503Z,12.75
2022-10-01T22:28:17.837Z,12.75
2022-10-01T22:33:19.019Z,12.85
2022-10-01T22:38:21.118Z,12.82
2022-10-01T22:43:20.256Z,12.89
2022-10-01T22:48:22.355Z,12.95
2022-10-01T22:53:21.712Z,13.03
2022-10-01T22:58:22.795Z,12.96
2022-10-01T23:03:23.911Z,13.00
2022-10-01T23:08:25.186Z,13.02
2022-10-01T23:13:26.276Z,13.03
2022-10-01T23:18:27.569Z,13.03
2022-10-01T23:23:28.696Z,13.03
2022-10-01T23:28:30.058Z,13.09
2022-10-01T23:33:32.233Z,13.14
2022-10-01T23:38:31.369Z,13.21
2022-10-01T23:43:32.694Z,13.18
2022-10-01T23:48:33.821Z,13.18
2022-10-01T23:53:35.170Z,13.27
2022-10-01T23:58:36.367Z,13.30
